Aviation Digital Data Service (ADDS)

Output produced by METARs form (2133 UTC 24 February 2018)
found at http://aviationweather.gov/adds/metars/
 
KSFO 242105Z 2421/2524 03005KT P6SM FEW030 BKN200 
     FM242200 28012KT P6SM FEW030 BKN200 
     FM250000 28020G28KT P6SM FEW020 SCT100 
     FM250400 28014KT P6SM SCT030 
     FM251000 29008KT P6SM FEW020 
     FM252100 26015KT P6SM FEW025